Time;durP1;ratioP1;P1;durP2;ratioP2;P2;SDS_P1;SDS_P2;PMS_P1;PMS_P2;Temp;Humidity;BMP_temperature;BMP_pressure;BME280_temperature;BME280_humidity;BME280_pressure;Samples;Min_cycle;Max_cycle;Signal;HPM_P1;HPM_P2
2020/12/12 00:01:48;;;;;;;;;;;22.10;47.70;;;;;;4916287;29;20273;-78
2020/12/12 00:04:15;;;;;;;;;;;22.20;48.20;;;;;;4915685;29;19911;-79
2020/12/12 00:06:42;;;;;;;;;;;22.40;48.70;;;;;;4902660;29;19966;-79
2020/12/12 00:09:08;;;;;;;;;;;22.50;48.40;;;;;;4916498;29;19918;-76
2020/12/12 00:11:35;;;;;;;;;;;22.60;48.10;;;;;;4889383;29;19915;-77
2020/12/12 00:14:02;;;;;;;;;;;22.70;47.10;;;;;;4898686;29;19911;-78
2020/12/12 00:16:30;;;;;;;;;;;22.40;48.00;;;;;;4901995;29;19943;-77
2020/12/12 00:18:57;;;;;;;;;;;22.40;48.70;;;;;;4919083;29;19955;-77
2020/12/12 00:21:23;;;;;;;;;;;22.70;48.90;;;;;;4919840;29;19914;-79
2020/12/12 00:23:50;;;;;;;;;;;22.90;46.60;;;;;;4919113;29;19957;-76
2020/12/12 00:26:18;;;;;;;;;;;22.90;45.70;;;;;;4901749;29;19911;-79
2020/12/12 00:28:45;;;;;;;;;;;23.00;45.80;;;;;;4918945;29;20006;-78
2020/12/12 00:31:18;;;;;;;;;;;23.10;43.90;;;;;;4919122;29;19922;-77
2020/12/12 00:33:45;;;;;;;;;;;23.30;42.80;;;;;;4902450;29;20350;-77
2020/12/12 00:36:12;;;;;;;;;;;23.40;44.20;;;;;;4918982;29;20270;-79
2020/12/12 00:38:38;;;;;;;;;;;23.70;45.00;;;;;;4919078;29;19915;-78
2020/12/12 00:41:07;;;;;;;;;;;23.90;42.90;;;;;;4918487;29;20522;-76
2020/12/12 00:43:34;;;;;;;;;;;23.90;42.60;;;;;;4918731;29;19911;-79
2020/12/12 00:46:03;;;;;;;;;;;24.00;44.40;;;;;;4919484;29;19907;-78
2020/12/12 00:48:30;;;;;;;;;;;24.00;44.90;;;;;;4906655;29;19911;-78
2020/12/12 00:50:57;;;;;;;;;;;24.30;44.90;;;;;;4908060;29;19918;-79
2020/12/12 00:53:24;;;;;;;;;;;24.40;45.10;;;;;;4919376;29;19911;-78
2020/12/12 00:55:53;;;;;;;;;;;24.50;45.30;;;;;;4918830;29;20383;-76
2020/12/12 00:58:20;;;;;;;;;;;24.90;44.80;;;;;;4918341;29;19918;-78
2020/12/12 01:00:47;;;;;;;;;;;24.70;45.50;;;;;;4918843;29;20014;-77
2020/12/12 01:03:14;;;;;;;;;;;24.30;47.60;;;;;;4924884;29;19911;-79
2020/12/12 01:05:43;;;;;;;;;;;24.20;48.40;;;;;;4925753;29;19918;-79
2020/12/12 01:08:10;;;;;;;;;;;24.00;49.50;;;;;;4902435;29;19918;-77
2020/12/12 01:10:37;;;;;;;;;;;24.20;49.00;;;;;;4925375;29;20322;-80
2020/12/12 01:13:03;;;;;;;;;;;24.40;47.40;;;;;;4935451;29;19950;-77
2020/12/12 01:15:30;;;;;;;;;;;24.40;48.00;;;;;;4918790;29;20359;-80
2020/12/12 01:17:57;;;;;;;;;;;24.20;48.90;;;;;;4902233;29;20009;-77
2020/12/12 01:20:23;;;;;;;;;;;24.10;48.80;;;;;;4908463;29;20352;-79
2020/12/12 01:22:52;;;;;;;;;;;23.60;48.00;;;;;;4921153;29;19915;-78
2020/12/12 01:25:18;;;;;;;;;;;23.60;47.10;;;;;;4928379;29;19918;-78
2020/12/12 01:27:45;;;;;;;;;;;23.50;46.90;;;;;;4904419;29;19907;-80
2020/12/12 01:30:12;;;;;;;;;;;23.60;47.30;;;;;;4918508;29;19907;-77
2020/12/12 01:32:42;;;;;;;;;;;24.20;46.80;;;;;;4918296;29;19913;-78
2020/12/12 01:35:09;;;;;;;;;;;24.10;45.80;;;;;;4917886;29;19907;-81
2020/12/12 01:37:36;;;;;;;;;;;24.10;47.50;;;;;;4917106;29;19915;-82
2020/12/12 01:40:03;;;;;;;;;;;24.40;45.80;;;;;;4928664;29;20002;-81
2020/12/12 01:42:33;;;;;;;;;;;24.70;44.00;;;;;;4920224;29;19922;-85
2020/12/12 01:45:01;;;;;;;;;;;24.80;44.10;;;;;;4921449;29;19910;-83
2020/12/12 01:47:29;;;;;;;;;;;24.80;47.10;;;;;;4915756;29;19925;-77
2020/12/12 01:49:56;;;;;;;;;;;25.00;47.70;;;;;;4924543;29;20362;-80
2020/12/12 01:52:24;;;;;;;;;;;24.60;43.70;;;;;;4918350;29;20409;-79
2020/12/12 01:54:52;;;;;;;;;;;24.10;43.40;;;;;;4922229;29;19977;-77
2020/12/12 01:57:20;;;;;;;;;;;24.10;47.70;;;;;;4933079;29;19919;-80
2020/12/12 01:59:47;;;;;;;;;;;23.80;48.30;;;;;;4939650;29;19914;-80
2020/12/12 02:02:15;;;;;;;;;;;23.70;47.70;;;;;;4933313;29;20385;-79
2020/12/12 02:04:46;;;;;;;;;;;23.30;47.10;;;;;;4920138;29;19911;-82
2020/12/12 02:07:14;;;;;;;;;;;23.30;47.40;;;;;;4916492;29;19911;-78
2020/12/12 02:09:41;;;;;;;;;;;23.30;48.50;;;;;;4899502;29;20562;-80
2020/12/12 02:12:08;;;;;;;;;;;23.40;49.50;;;;;;4905989;29;19915;-78
2020/12/12 02:14:38;;;;;;;;;;;23.40;49.50;;;;;;4899944;29;19915;-79
2020/12/12 02:17:10;;;;;;;;;;;23.60;50.30;;;;;;4897521;29;19915;-78
2020/12/12 02:19:37;;;;;;;;;;;23.80;50.00;;;;;;4891954;29;19987;-81
2020/12/12 02:22:04;;;;;;;;;;;23.90;50.00;;;;;;4901276;29;19970;-84
2020/12/12 02:24:33;;;;;;;;;;;23.70;49.20;;;;;;4905550;29;20343;-82
2020/12/12 02:27:07;;;;;;;;;;;23.60;49.60;;;;;;4906170;29;19926;-83
2020/12/12 02:29:50;;;;;;;;;;;23.50;49.90;;;;;;4910081;29;19912;-78
2020/12/12 02:32:17;;;;;;;;;;;23.40;50.60;;;;;;4897725;29;19907;-80
2020/12/12 02:34:44;;;;;;;;;;;23.30;51.30;;;;;;4900049;29;20398;-81
2020/12/12 02:37:11;;;;;;;;;;;23.10;51.90;;;;;;4897210;29;19935;-80
2020/12/12 02:39:38;;;;;;;;;;;23.20;52.90;;;;;;4881409;29;20238;-77
2020/12/12 02:42:05;;;;;;;;;;;23.30;52.00;;;;;;4881662;29;19915;-78
2020/12/12 02:44:31;;;;;;;;;;;23.20;53.80;;;;;;4904437;29;19911;-79
2020/12/12 02:47:03;;;;;;;;;;;23.40;55.50;;;;;;4920514;29;19910;-77
2020/12/12 02:49:29;;;;;;;;;;;23.40;57.10;;;;;;4902350;29;19911;-80
2020/12/12 02:51:56;;;;;;;;;;;23.50;57.20;;;;;;4908410;29;20005;-82
2020/12/12 02:54:27;;;;;;;;;;;23.20;56.20;;;;;;4915283;29;19945;-78
2020/12/12 02:56:53;;;;;;;;;;;23.00;57.70;;;;;;4911849;29;19923;-76
2020/12/12 02:59:20;;;;;;;;;;;23.00;57.20;;;;;;4916709;29;19919;-80
2020/12/12 03:01:47;;;;;;;;;;;23.00;57.40;;;;;;4912991;29;19911;-78
2020/12/12 03:04:13;;;;;;;;;;;23.00;58.60;;;;;;4916975;29;19937;-76
2020/12/12 03:06:44;;;;;;;;;;;23.30;58.10;;;;;;4909475;29;19951;-80
2020/12/12 03:09:11;;;;;;;;;;;23.40;56.00;;;;;;4890797;29;19919;-76
2020/12/12 03:11:37;;;;;;;;;;;23.40;54.50;;;;;;4889075;29;19975;-77
2020/12/12 03:14:08;;;;;;;;;;;23.50;54.30;;;;;;4907089;29;19950;-78
2020/12/12 03:16:35;;;;;;;;;;;23.20;56.20;;;;;;4898226;29;20343;-78
2020/12/12 03:19:02;;;;;;;;;;;23.30;57.30;;;;;;4885001;29;20355;-77
2020/12/12 03:21:28;;;;;;;;;;;23.30;58.60;;;;;;4894234;29;19914;-80
2020/12/12 03:23:55;;;;;;;;;;;23.30;59.80;;;;;;4928937;29;19944;-77
2020/12/12 03:26:22;;;;;;;;;;;23.40;60.10;;;;;;4916418;29;20306;-80
2020/12/12 03:28:49;;;;;;;;;;;23.40;58.60;;;;;;4901716;29;19912;-78
2020/12/12 03:31:16;;;;;;;;;;;23.30;59.70;;;;;;4895593;29;19907;-77
2020/12/12 03:33:43;;;;;;;;;;;23.40;58.90;;;;;;4896813;29;20010;-78
2020/12/12 03:36:10;;;;;;;;;;;23.10;58.20;;;;;;4892471;29;19907;-78
2020/12/12 03:38:37;;;;;;;;;;;22.80;58.80;;;;;;4899369;29;19907;-77
2020/12/12 03:41:04;;;;;;;;;;;22.50;59.20;;;;;;4895846;29;20355;-78
2020/12/12 03:43:30;;;;;;;;;;;22.50;60.00;;;;;;4895825;29;19914;-80
2020/12/12 03:45:57;;;;;;;;;;;22.50;61.40;;;;;;4915636;29;19918;-74
2020/12/12 03:48:24;;;;;;;;;;;22.50;61.20;;;;;;4912563;29;20022;-78
2020/12/12 03:50:53;;;;;;;;;;;22.40;61.40;;;;;;4916336;29;19966;-80
2020/12/12 03:53:19;;;;;;;;;;;22.40;60.80;;;;;;4916550;29;20006;-78
2020/12/12 03:55:46;;;;;;;;;;;22.40;62.10;;;;;;4916967;29;20322;-79
2020/12/12 03:58:13;;;;;;;;;;;22.30;62.40;;;;;;4921589;29;20460;-78
2020/12/12 04:00:39;;;;;;;;;;;22.10;63.70;;;;;;4928438;29;20344;-77
2020/12/12 04:03:06;;;;;;;;;;;22.20;64.40;;;;;;4916030;29;19946;-78
2020/12/12 04:05:33;;;;;;;;;;;22.30;64.20;;;;;;4898720;29;19923;-79
2020/12/12 04:08:00;;;;;;;;;;;22.20;64.40;;;;;;4905979;29;20365;-77
2020/12/12 04:10:26;;;;;;;;;;;22.00;64.50;;;;;;4917441;29;20057;-78
2020/12/12 04:12:53;;;;;;;;;;;22.00;65.00;;;;;;4916754;29;20022;-79
2020/12/12 04:15:20;;;;;;;;;;;21.90;66.70;;;;;;4917723;29;19915;-80
2020/12/12 04:17:46;;;;;;;;;;;22.00;67.20;;;;;;4916958;29;19955;-76
2020/12/12 04:20:13;;;;;;;;;;;21.80;67.00;;;;;;4918619;29;19922;-80
2020/12/12 04:22:40;;;;;;;;;;;21.70;68.10;;;;;;4917335;29;19919;-78
2020/12/12 04:25:07;;;;;;;;;;;21.70;68.40;;;;;;4916893;29;19914;-78
2020/12/12 04:27:33;;;;;;;;;;;21.80;66.50;;;;;;4916444;29;19962;-78
2020/12/12 04:30:00;;;;;;;;;;;21.80;66.90;;;;;;4916986;29;19915;-77
2020/12/12 04:32:26;;;;;;;;;;;22.00;66.20;;;;;;4922421;29;19911;-81
2020/12/12 04:34:53;;;;;;;;;;;22.00;65.30;;;;;;4920415;29;19958;-76
2020/12/12 04:37:20;;;;;;;;;;;22.10;64.50;;;;;;4916825;29;19918;-76
2020/12/12 04:39:46;;;;;;;;;;;22.10;64.10;;;;;;4917388;29;19958;-76
2020/12/12 04:42:15;;;;;;;;;;;22.00;63.90;;;;;;4916617;29;19907;-77
2020/12/12 04:44:45;;;;;;;;;;;22.00;63.90;;;;;;4918185;29;19911;-78
2020/12/12 04:47:12;;;;;;;;;;;22.10;64.90;;;;;;4914386;29;19995;-77
2020/12/12 04:49:40;;;;;;;;;;;22.00;65.60;;;;;;4914716;29;20421;-81
2020/12/12 04:52:07;;;;;;;;;;;21.90;67.00;;;;;;4916696;29;20278;-78
2020/12/12 04:54:34;;;;;;;;;;;22.00;65.30;;;;;;4917178;29;20033;-77
2020/12/12 04:57:05;;;;;;;;;;;22.00;65.40;;;;;;4917679;29;19921;-80
2020/12/12 04:59:32;;;;;;;;;;;21.90;66.40;;;;;;4917181;29;19919;-76
2020/12/12 05:01:59;;;;;;;;;;;21.90;65.70;;;;;;4920438;29;19917;-80
2020/12/12 05:04:26;;;;;;;;;;;22.10;65.60;;;;;;4916716;29;20029;-79
2020/12/12 05:06:53;;;;;;;;;;;22.10;65.20;;;;;;4917135;29;19915;-80
2020/12/12 05:09:20;;;;;;;;;;;22.10;65.40;;;;;;4915414;29;19937;-78
2020/12/12 05:11:47;;;;;;;;;;;22.20;64.40;;;;;;4923709;29;19918;-79
2020/12/12 05:14:17;;;;;;;;;;;22.20;64.30;;;;;;4936681;29;19917;-76
2020/12/12 05:16:46;;;;;;;;;;;22.20;63.70;;;;;;4929640;29;19918;-80
2020/12/12 05:19:13;;;;;;;;;;;22.20;63.40;;;;;;4905723;29;19930;-80
2020/12/12 05:21:47;;;;;;;;;;;22.20;64.00;;;;;;4917342;29;20330;-80
2020/12/12 05:24:14;;;;;;;;;;;22.00;64.40;;;;;;4917456;29;19934;-79
2020/12/12 05:26:42;;;;;;;;;;;22.00;65.40;;;;;;4916414;29;19919;-77
2020/12/12 05:29:09;;;;;;;;;;;21.90;65.70;;;;;;4916561;29;19989;-77
2020/12/12 05:31:37;;;;;;;;;;;21.80;64.50;;;;;;4915696;29;20475;-79
2020/12/12 05:34:15;;;;;;;;;;;21.50;66.40;;;;;;4898672;29;19911;-81
2020/12/12 05:36:43;;;;;;;;;;;21.60;67.40;;;;;;4915454;29;20362;-80
2020/12/12 05:39:10;;;;;;;;;;;21.80;67.00;;;;;;4916961;29;20010;-80
2020/12/12 05:41:37;;;;;;;;;;;21.90;65.60;;;;;;4912446;29;20248;-80
2020/12/12 05:44:04;;;;;;;;;;;21.90;65.20;;;;;;4933164;29;19911;-87
2020/12/12 05:46:31;;;;;;;;;;;21.70;64.90;;;;;;4927959;29;20382;-79
2020/12/12 05:48:58;;;;;;;;;;;21.80;65.10;;;;;;4917595;29;19918;-79
2020/12/12 05:51:27;;;;;;;;;;;21.70;65.60;;;;;;4916160;29;19919;-85
2020/12/12 05:53:54;;;;;;;;;;;21.60;65.90;;;;;;4916785;29;20286;-82
2020/12/12 05:56:21;;;;;;;;;;;21.40;66.60;;;;;;4918423;29;19919;-85
2020/12/12 05:58:48;;;;;;;;;;;21.30;67.40;;;;;;4933847;29;19982;-78
2020/12/12 06:01:19;;;;;;;;;;;21.40;67.60;;;;;;4930812;29;20366;-83
2020/12/12 06:04:05;;;;;;;;;;;21.40;68.20;;;;;;4917928;29;20270;-80
2020/12/12 06:06:32;;;;;;;;;;;21.40;67.80;;;;;;4915248;29;19915;-84
2020/12/12 06:09:04;;;;;;;;;;;21.50;67.10;;;;;;4911006;29;19915;-82
2020/12/12 06:11:32;;;;;;;;;;;21.50;66.90;;;;;;4912879;29;19955;-81
2020/12/12 06:14:03;;;;;;;;;;;21.50;67.70;;;;;;4915186;29;19907;-82
2020/12/12 06:16:31;;;;;;;;;;;21.50;67.40;;;;;;4914575;29;19926;-83
2020/12/12 06:19:01;;;;;;;;;;;21.50;67.10;;;;;;4915090;29;19911;-86
2020/12/12 06:21:28;;;;;;;;;;;21.50;66.50;;;;;;4913527;29;19915;-81
2020/12/12 06:23:57;;;;;;;;;;;21.50;66.00;;;;;;4915219;29;19978;-84
2020/12/12 06:26:29;;;;;;;;;;;21.40;65.80;;;;;;4913141;29;20282;-84
2020/12/12 06:28:57;;;;;;;;;;;21.40;65.90;;;;;;4906718;29;19942;-80
2020/12/12 06:31:25;;;;;;;;;;;21.30;67.10;;;;;;4914914;29;20374;-82
2020/12/12 06:33:53;;;;;;;;;;;21.30;66.00;;;;;;4907610;29;19911;-79
2020/12/12 06:36:26;;;;;;;;;;;21.30;65.40;;;;;;4914577;29;19907;-82
2020/12/12 06:39:16;;;;;;;;;;;21.30;64.60;;;;;;4912448;29;19961;-81
2020/12/12 06:41:43;;;;;;;;;;;21.20;64.60;;;;;;4900672;29;19919;-77
2020/12/12 06:44:29;;;;;;;;;;;21.20;63.50;;;;;;4906573;29;20353;-81
2020/12/12 06:46:59;;;;;;;;;;;21.20;64.50;;;;;;4921859;29;20001;-85
2020/12/12 06:49:27;;;;;;;;;;;21.20;64.00;;;;;;4908673;29;19985;-82
2020/12/12 06:51:55;;;;;;;;;;;21.10;64.90;;;;;;4915619;29;20013;-84
2020/12/12 06:54:21;;;;;;;;;;;21.20;64.10;;;;;;4915075;29;19911;-83
2020/12/12 06:56:48;;;;;;;;;;;21.30;63.30;;;;;;4896878;29;19925;-82
2020/12/12 06:59:31;;;;;;;;;;;21.40;63.20;;;;;;4914522;29;19926;-82
2020/12/12 07:02:01;;;;;;;;;;;21.30;61.90;;;;;;4912230;29;19944;-82
2020/12/12 07:04:34;;;;;;;;;;;21.20;61.90;;;;;;4916644;29;19914;-79
2020/12/12 07:07:02;;;;;;;;;;;21.10;61.60;;;;;;4905483;29;19978;-76
2020/12/12 07:09:29;;;;;;;;;;;21.10;62.10;;;;;;4897637;29;19915;-81
2020/12/12 07:11:57;;;;;;;;;;;21.10;62.70;;;;;;4931167;29;19911;-83
2020/12/12 07:14:24;;;;;;;;;;;21.10;62.60;;;;;;4917384;29;19907;-79
2020/12/12 07:16:58;;;;;;;;;;;21.20;62.90;;;;;;4912371;29;20374;-79
2020/12/12 07:19:41;;;;;;;;;;;21.20;62.60;;;;;;4913787;29;19958;-81
2020/12/12 07:22:09;;;;;;;;;;;21.20;62.80;;;;;;4914511;29;19927;-81
2020/12/12 07:24:37;;;;;;;;;;;20.90;63.20;;;;;;4918749;29;19907;-80
2020/12/12 07:27:05;;;;;;;;;;;20.90;64.00;;;;;;4917908;29;20001;-79
2020/12/12 07:29:32;;;;;;;;;;;21.10;63.90;;;;;;4925233;29;19915;-78
2020/12/12 07:31:59;;;;;;;;;;;21.00;63.80;;;;;;4931031;29;19911;-79
2020/12/12 07:34:26;;;;;;;;;;;21.10;64.10;;;;;;4923487;29;19925;-80
2020/12/12 07:37:04;;;;;;;;;;;21.00;63.10;;;;;;4921148;29;19915;-78
2020/12/12 07:39:31;;;;;;;;;;;20.80;63.60;;;;;;4913394;29;19923;-82
2020/12/12 07:42:04;;;;;;;;;;;20.70;64.70;;;;;;4915068;29;19918;-81
2020/12/12 07:44:32;;;;;;;;;;;20.70;65.40;;;;;;4919934;29;19911;-79
2020/12/12 07:47:00;;;;;;;;;;;20.70;65.60;;;;;;4902913;29;20681;-82
2020/12/12 07:49:45;;;;;;;;;;;20.70;65.60;;;;;;4920386;29;20006;-81
2020/12/12 07:52:46;;;;;;;;;;;20.80;65.70;;;;;;4930292;29;19919;-81
2020/12/12 07:55:33;;;;;;;;;;;20.80;65.70;;;;;;4919084;29;19914;-80
2020/12/12 07:58:01;;;;;;;;;;;20.70;65.90;;;;;;4931842;29;19923;-80
2020/12/12 08:00:28;;;;;;;;;;;20.70;66.30;;;;;;4920724;29;19922;-80
2020/12/12 08:02:59;;;;;;;;;;;20.70;66.80;;;;;;4920104;29;19923;-78
2020/12/12 08:05:25;;;;;;;;;;;20.80;66.90;;;;;;4917122;29;19966;-80
2020/12/12 08:07:52;;;;;;;;;;;20.80;66.70;;;;;;4920531;29;19947;-78
2020/12/12 08:10:19;;;;;;;;;;;20.80;67.40;;;;;;4920473;29;19955;-82
2020/12/12 08:12:46;;;;;;;;;;;20.70;67.80;;;;;;4906070;29;20006;-79
2020/12/12 08:15:19;;;;;;;;;;;20.60;69.40;;;;;;4920324;29;19918;-81
2020/12/12 08:17:46;;;;;;;;;;;20.50;71.10;;;;;;4920684;29;19907;-77
2020/12/12 08:20:16;;;;;;;;;;;20.50;76.30;;;;;;4903198;29;19919;-79
2020/12/12 08:22:44;;;;;;;;;;;20.20;77.70;;;;;;4903653;29;19961;-84
2020/12/12 08:25:11;;;;;;;;;;;20.00;78.50;;;;;;4920368;29;19910;-79
2020/12/12 08:27:38;;;;;;;;;;;19.90;78.00;;;;;;4920276;29;19915;-79
2020/12/12 08:30:06;;;;;;;;;;;19.90;78.00;;;;;;4920757;29;19962;-80
2020/12/12 08:32:43;;;;;;;;;;;19.80;77.80;;;;;;4920660;29;19915;-79
2020/12/12 08:35:15;;;;;;;;;;;19.80;76.90;;;;;;4918007;29;20006;-79
2020/12/12 08:37:58;;;;;;;;;;;19.80;76.80;;;;;;4917481;29;19911;-83
2020/12/12 08:40:29;;;;;;;;;;;19.80;76.50;;;;;;4917304;29;20366;-83
2020/12/12 08:43:07;;;;;;;;;;;19.80;76.00;;;;;;4917406;29;19939;-79
2020/12/12 08:45:38;;;;;;;;;;;19.90;76.00;;;;;;4915931;29;19915;-77
2020/12/12 08:48:11;;;;;;;;;;;19.90;76.20;;;;;;4930010;29;19897;-79
2020/12/12 08:50:44;;;;;;;;;;;19.90;76.80;;;;;;4935695;29;20505;-79
2020/12/12 08:53:29;;;;;;;;;;;19.90;76.50;;;;;;4921009;29;20335;-80
2020/12/12 08:55:59;;;;;;;;;;;19.80;77.00;;;;;;4925201;29;20318;-79
2020/12/12 08:58:38;;;;;;;;;;;19.80;76.20;;;;;;4921797;29;19919;-78
2020/12/12 09:01:13;;;;;;;;;;;19.70;76.30;;;;;;4917512;29;19919;-81
2020/12/12 09:03:53;;;;;;;;;;;19.80;75.90;;;;;;4917599;29;19907;-79
2020/12/12 09:06:20;;;;;;;;;;;19.80;75.80;;;;;;4917391;29;19942;-79
2020/12/12 09:08:47;;;;;;;;;;;19.70;76.00;;;;;;4915665;29;20299;-80
2020/12/12 09:11:14;;;;;;;;;;;19.80;76.00;;;;;;4919065;29;19907;-79
2020/12/12 09:13:41;;;;;;;;;;;19.80;75.80;;;;;;4917855;29;19993;-79
2020/12/12 09:16:09;;;;;;;;;;;19.90;74.20;;;;;;4915783;29;19930;-78
2020/12/12 09:18:45;;;;;;;;;;;19.90;72.30;;;;;;4916997;29;20058;-83
2020/12/12 09:21:13;;;;;;;;;;;19.80;73.90;;;;;;4917465;29;19919;-80
2020/12/12 09:23:41;;;;;;;;;;;19.70;77.20;;;;;;4917389;29;19938;-79
2020/12/12 09:26:08;;;;;;;;;;;19.60;78.70;;;;;;4917216;29;19921;-83
2020/12/12 09:28:35;;;;;;;;;;;19.20;79.70;;;;;;4911443;29;19919;-81
2020/12/12 09:31:04;;;;;;;;;;;19.10;80.00;;;;;;4897767;29;20274;-80
2020/12/12 09:33:33;;;;;;;;;;;18.90;80.60;;;;;;4898062;29;20282;-81
2020/12/12 09:36:00;;;;;;;;;;;18.80;81.00;;;;;;4896687;29;19911;-78
2020/12/12 09:38:27;;;;;;;;;;;18.80;80.10;;;;;;4896228;29;19915;-79
2020/12/12 09:40:55;;;;;;;;;;;18.70;80.80;;;;;;4896549;29;20393;-78
2020/12/12 09:43:22;;;;;;;;;;;18.80;80.70;;;;;;4904239;29;19911;-76
2020/12/12 09:45:48;;;;;;;;;;;18.80;80.60;;;;;;4915399;29;20295;-80
2020/12/12 09:48:15;;;;;;;;;;;18.80;80.70;;;;;;4908464;29;19911;-81
2020/12/12 09:50:42;;;;;;;;;;;18.80;80.00;;;;;;4914532;29;19911;-78
2020/12/12 09:53:09;;;;;;;;;;;18.90;80.20;;;;;;4908521;29;19945;-78
2020/12/12 09:55:37;;;;;;;;;;;19.00;81.20;;;;;;4889956;29;19912;-79
2020/12/12 09:58:07;;;;;;;;;;;18.90;83.20;;;;;;4907863;29;19998;-79
2020/12/12 10:00:35;;;;;;;;;;;18.80;83.20;;;;;;4915636;29;20362;-80
2020/12/12 10:03:07;;;;;;;;;;;18.70;83.30;;;;;;4915904;29;19922;-79
2020/12/12 10:05:37;;;;;;;;;;;18.70;82.90;;;;;;4908143;29;19955;-80
2020/12/12 10:08:05;;;;;;;;;;;18.60;83.30;;;;;;4897810;29;19915;-78
2020/12/12 10:10:33;;;;;;;;;;;18.60;82.80;;;;;;4912541;29;19922;-76
2020/12/12 10:13:00;;;;;;;;;;;18.60;82.80;;;;;;4907264;29;19917;-77
2020/12/12 10:15:27;;;;;;;;;;;18.70;82.20;;;;;;4904378;29;19915;-77
2020/12/12 10:17:55;;;;;;;;;;;18.70;82.50;;;;;;4913419;29;20519;-79
2020/12/12 10:20:23;;;;;;;;;;;18.70;82.30;;;;;;4915873;29;20007;-80
2020/12/12 10:22:50;;;;;;;;;;;18.70;82.30;;;;;;4915840;29;19907;-77
2020/12/12 10:25:17;;;;;;;;;;;18.70;82.40;;;;;;4914215;29;19921;-79
2020/12/12 10:27:44;;;;;;;;;;;18.70;82.30;;;;;;4926543;29;20349;-78
2020/12/12 10:30:12;;;;;;;;;;;18.80;82.10;;;;;;4918318;29;19911;-76
2020/12/12 10:32:40;;;;;;;;;;;18.80;82.30;;;;;;4931213;29;19954;-78
2020/12/12 10:35:08;;;;;;;;;;;18.80;82.20;;;;;;4919446;29;20334;-79
2020/12/12 10:37:35;;;;;;;;;;;18.70;82.10;;;;;;4911774;29;19918;-79
2020/12/12 10:40:13;;;;;;;;;;;18.80;82.40;;;;;;4914429;29;19919;-79
2020/12/12 10:42:39;;;;;;;;;;;18.80;82.20;;;;;;4896776;29;20484;-80
2020/12/12 10:45:07;;;;;;;;;;;18.80;82.10;;;;;;4913252;29;20006;-79
2020/12/12 10:47:34;;;;;;;;;;;18.90;81.80;;;;;;4913862;29;19990;-80
2020/12/12 10:50:00;;;;;;;;;;;18.90;81.20;;;;;;4897707;29;19907;-79
2020/12/12 10:52:27;;;;;;;;;;;18.90;80.60;;;;;;4913887;29;19965;-77
2020/12/12 10:54:54;;;;;;;;;;;18.90;80.60;;;;;;4914776;29;19907;-79
2020/12/12 10:57:21;;;;;;;;;;;18.90;80.20;;;;;;4914306;29;20006;-79
2020/12/12 10:59:48;;;;;;;;;;;18.90;80.00;;;;;;4912884;29;19943;-79
2020/12/12 11:02:14;;;;;;;;;;;18.90;79.40;;;;;;4913523;29;20424;-79
2020/12/12 11:04:41;;;;;;;;;;;19.00;79.10;;;;;;4914661;29;20394;-80
2020/12/12 11:07:08;;;;;;;;;;;19.00;78.40;;;;;;4915576;29;19911;-81
2020/12/12 11:09:36;;;;;;;;;;;19.00;78.20;;;;;;4914975;29;20093;-80
2020/12/12 11:12:04;;;;;;;;;;;19.10;77.70;;;;;;4879249;29;19942;-80
2020/12/12 11:14:33;;;;;;;;;;;19.20;76.40;;;;;;4894315;29;19911;-81
2020/12/12 11:17:03;;;;;;;;;;;19.20;76.00;;;;;;4903994;29;19918;-80
2020/12/12 11:19:29;;;;;;;;;;;19.30;74.30;;;;;;4915074;29;19926;-78
2020/12/12 11:21:56;;;;;;;;;;;19.40;74.10;;;;;;4896450;29;19910;-81
2020/12/12 11:24:23;;;;;;;;;;;19.40;73.80;;;;;;4913169;29;19922;-79
2020/12/12 11:26:50;;;;;;;;;;;19.50;72.80;;;;;;4916630;29;20267;-82
2020/12/12 11:29:17;;;;;;;;;;;19.50;73.00;;;;;;4915666;29;19915;-82
2020/12/12 11:31:47;;;;;;;;;;;19.40;72.20;;;;;;4913708;29;20005;-81
2020/12/12 11:34:20;;;;;;;;;;;19.30;72.60;;;;;;4915366;29;19911;-78
2020/12/12 11:39:27;;;;;;;;;;;19.30;71.80;;;;;;4914573;29;20025;-78
2020/12/12 11:42:05;;;;;;;;;;;19.30;71.50;;;;;;4912971;29;20249;-80
2020/12/12 11:47:34;;;;;;;;;;;19.30;72.50;;;;;;4876716;29;19982;-77
2020/12/12 11:50:00;;;;;;;;;;;19.40;74.60;;;;;;4907766;29;19938;-79
2020/12/12 11:52:30;;;;;;;;;;;19.50;75.40;;;;;;4913224;29;19915;-81
2020/12/12 11:54:56;;;;;;;;;;;19.50;75.90;;;;;;4914112;29;19923;-79
2020/12/12 11:57:23;;;;;;;;;;;19.50;76.50;;;;;;4913640;29;19927;-78
2020/12/12 11:59:50;;;;;;;;;;;19.50;76.50;;;;;;4914082;29;20548;-78
2020/12/12 12:02:16;;;;;;;;;;;19.50;76.70;;;;;;4914837;29;19921;-78
2020/12/12 12:04:43;;;;;;;;;;;19.40;77.30;;;;;;4913465;29;20026;-81
2020/12/12 12:07:11;;;;;;;;;;;19.40;77.30;;;;;;4914281;29;20278;-78
2020/12/12 12:09:44;;;;;;;;;;;19.40;77.10;;;;;;4915932;29;19907;-81
2020/12/12 12:12:11;;;;;;;;;;;19.40;77.10;;;;;;4917941;29;19922;-79
2020/12/12 12:14:37;;;;;;;;;;;19.40;78.10;;;;;;4918477;29;19976;-80
2020/12/12 12:17:04;;;;;;;;;;;19.40;77.80;;;;;;4902098;29;19958;-80
2020/12/12 12:19:32;;;;;;;;;;;19.30;77.60;;;;;;4916953;29;19996;-78
2020/12/12 12:21:59;;;;;;;;;;;19.30;77.60;;;;;;4918103;29;19964;-81
2020/12/12 12:24:26;;;;;;;;;;;19.20;78.10;;;;;;4916782;29;19911;-77
2020/12/12 12:26:52;;;;;;;;;;;19.20;77.90;;;;;;4916169;29;19911;-76
2020/12/12 12:29:21;;;;;;;;;;;19.20;78.20;;;;;;4916078;29;20282;-79
2020/12/12 12:31:48;;;;;;;;;;;19.10;78.10;;;;;;4917338;29;19918;-80
2020/12/12 12:34:16;;;;;;;;;;;19.10;77.90;;;;;;4916630;29;20389;-78
2020/12/12 12:36:43;;;;;;;;;;;19.10;78.20;;;;;;4916019;29;19919;-78
2020/12/12 12:39:10;;;;;;;;;;;19.10;78.00;;;;;;4916484;29;20286;-79
2020/12/12 12:41:38;;;;;;;;;;;19.10;77.30;;;;;;4922181;29;20370;-80
2020/12/12 12:44:08;;;;;;;;;;;19.10;77.00;;;;;;4916562;29;19918;-78
2020/12/12 12:46:36;;;;;;;;;;;19.10;77.10;;;;;;4915423;29;20352;-79
2020/12/12 12:49:03;;;;;;;;;;;19.20;76.60;;;;;;4936520;29;20002;-80
2020/12/12 12:51:30;;;;;;;;;;;19.20;76.40;;;;;;4920213;29;19939;-80
2020/12/12 12:53:56;;;;;;;;;;;19.10;76.40;;;;;;4916936;29;20291;-81
2020/12/12 12:56:24;;;;;;;;;;;19.20;76.30;;;;;;4916747;29;19915;-80
2020/12/12 12:58:51;;;;;;;;;;;19.20;76.10;;;;;;4916058;29;20000;-81
2020/12/12 13:01:19;;;;;;;;;;;19.20;75.80;;;;;;4916273;29;20071;-81
2020/12/12 13:03:47;;;;;;;;;;;19.10;75.70;;;;;;4916162;29;20416;-81
2020/12/12 13:06:18;;;;;;;;;;;19.20;75.70;;;;;;4918306;29;19915;-81
2020/12/12 13:08:44;;;;;;;;;;;19.10;75.90;;;;;;4913504;29;19922;-80
2020/12/12 13:11:11;;;;;;;;;;;19.20;75.60;;;;;;4919249;29;19915;-80
2020/12/12 13:13:38;;;;;;;;;;;19.10;75.80;;;;;;4911277;29;20454;-80
2020/12/12 13:16:08;;;;;;;;;;;19.20;76.10;;;;;;4916494;29;19970;-79
2020/12/12 13:19:21;;;;;;;;;;;19.20;76.30;;;;;;4916581;29;19994;-83
2020/12/12 13:21:40;;;;;;;;;;;19.20;76.40;;;;;;4906096;29;19915;-80
2020/12/12 13:24:07;;;;;;;;;;;19.20;75.90;;;;;;4916206;29;20002;-81
2020/12/12 13:26:33;;;;;;;;;;;19.20;75.20;;;;;;4915375;29;19919;-80
2020/12/12 13:31:46;;;;;;;;;;;19.20;75.10;;;;;;4916734;29;20274;-79
2020/12/12 13:34:12;;;;;;;;;;;19.30;75.30;;;;;;4915798;29;19919;-81
2020/12/12 13:36:39;;;;;;;;;;;19.20;74.90;;;;;;4916521;29;19915;-79
2020/12/12 13:39:06;;;;;;;;;;;19.30;75.10;;;;;;4915613;29;19913;-81
2020/12/12 13:41:33;;;;;;;;;;;19.20;74.80;;;;;;4914981;29;19919;-79
2020/12/12 13:44:01;;;;;;;;;;;19.20;75.30;;;;;;4898454;29;20453;-80
2020/12/12 13:46:28;;;;;;;;;;;19.20;75.80;;;;;;4899937;29;19925;-78
2020/12/12 13:48:55;;;;;;;;;;;19.20;75.20;;;;;;4924467;29;19911;-79
2020/12/12 13:51:22;;;;;;;;;;;19.20;75.40;;;;;;4918189;29;19914;-80
2020/12/12 13:53:49;;;;;;;;;;;19.20;75.40;;;;;;4919506;29;19947;-80
2020/12/12 13:56:15;;;;;;;;;;;19.20;75.20;;;;;;4926348;29;20368;-80
2020/12/12 13:58:45;;;;;;;;;;;19.20;74.70;;;;;;4936866;29;19919;-81
2020/12/12 14:01:15;;;;;;;;;;;19.20;75.20;;;;;;4921738;29;19915;-80
2020/12/12 14:03:42;;;;;;;;;;;19.20;75.30;;;;;;4918165;29;20417;-80
2020/12/12 14:06:09;;;;;;;;;;;19.20;74.90;;;;;;4928637;29;20019;-79
2020/12/12 14:24:42;;;;;;;;;;;18.90;77.10;;;;;;4936530;29;20258;-80
2020/12/12 14:29:53;;;;;;;;;;;18.90;77.60;;;;;;4955688;29;19918;-80
2020/12/12 14:32:23;;;;;;;;;;;18.90;77.60;;;;;;4930958;29;19911;-79
2020/12/12 14:34:49;;;;;;;;;;;18.90;77.50;;;;;;4931320;29;20407;-79
2020/12/12 14:37:16;;;;;;;;;;;18.80;77.70;;;;;;4930797;29;19957;-80
2020/12/12 14:39:44;;;;;;;;;;;18.80;77.90;;;;;;4935915;29;19919;-79
2020/12/12 14:42:11;;;;;;;;;;;18.80;77.30;;;;;;4934204;29;19899;-80
2020/12/12 14:44:38;;;;;;;;;;;18.80;77.30;;;;;;4938539;29;19895;-80
2020/12/12 14:47:05;;;;;;;;;;;18.80;77.10;;;;;;4944563;29;19998;-80
2020/12/12 14:49:31;;;;;;;;;;;18.80;77.10;;;;;;4957122;29;19910;-80
2020/12/12 14:51:58;;;;;;;;;;;18.80;77.30;;;;;;4955938;29;19906;-79